Time;durP1;ratioP1;P1;durP2;ratioP2;P2;SDS_P1;SDS_P2;PMS_P1;PMS_P2;Temp;Humidity;BMP_temperature;BMP_pressure;BME280_temperature;BME280_humidity;BME280_pressure;Samples;Min_cycle;Max_cycle;Signal;HPM_P1;HPM_P2
2023/08/26 00:02:08;;;;;;;2.35;2.15;;;24.30;67.30;;;;;;4942926;28;87201;-85
2023/08/26 00:04:34;;;;;;;2.55;2.30;;;24.30;67.40;;;;;;4943519;28;88121;-86
2023/08/26 00:07:00;;;;;;;3.40;2.67;;;24.30;67.30;;;;;;4944266;28;87443;-84
2023/08/26 00:09:26;;;;;;;3.88;2.92;;;24.20;67.40;;;;;;4944954;28;87944;-85
2023/08/26 00:11:53;;;;;;;3.00;2.35;;;24.20;67.40;;;;;;4942917;28;87645;-86
2023/08/26 00:14:19;;;;;;;2.67;2.38;;;24.20;67.30;;;;;;4941350;28;89118;-84
2023/08/26 00:16:45;;;;;;;2.72;2.47;;;24.20;67.50;;;;;;4944207;28;89242;-84
2023/08/26 00:19:10;;;;;;;3.53;2.88;;;24.20;67.30;;;;;;4944076;28;87722;-88
2023/08/26 00:21:37;;;;;;;2.80;2.42;;;24.20;67.40;;;;;;4942349;28;89205;-86
2023/08/26 00:24:03;;;;;;;2.42;2.22;;;24.20;67.70;;;;;;4941052;28;87770;-86
2023/08/26 00:26:29;;;;;;;3.10;2.80;;;24.20;67.70;;;;;;4941648;28;88083;-85
2023/08/26 00:28:55;;;;;;;3.88;2.55;;;24.20;67.70;;;;;;4940174;28;87528;-83
2023/08/26 00:31:22;;;;;;;2.63;2.42;;;24.20;67.70;;;;;;4942972;28;87172;-84
2023/08/26 00:33:48;;;;;;;4.03;3.13;;;24.20;67.60;;;;;;4941521;28;89155;-86
2023/08/26 00:36:13;;;;;;;4.45;2.80;;;24.20;67.60;;;;;;4942206;28;87493;-85
2023/08/26 00:38:39;;;;;;;2.85;2.50;;;24.20;67.60;;;;;;4943205;28;95132;-85
2023/08/26 00:41:05;;;;;;;3.13;2.20;;;24.20;67.60;;;;;;4943335;28;87599;-84
2023/08/26 00:43:30;;;;;;;3.22;2.70;;;24.10;67.70;;;;;;4942026;28;90991;-85
2023/08/26 00:45:58;;;;;;;3.22;2.47;;;24.20;67.80;;;;;;4940839;28;88471;-84
2023/08/26 00:48:24;;;;;;;2.63;2.42;;;24.10;67.60;;;;;;4942637;28;87847;-86
2023/08/26 00:50:52;;;;;;;3.53;3.22;;;24.10;67.60;;;;;;4941860;28;92988;-84
2023/08/26 00:53:18;;;;;;;3.63;2.73;;;24.10;67.60;;;;;;4941613;28;89910;-86
2023/08/26 00:55:44;;;;;;;3.03;2.72;;;24.10;67.60;;;;;;4941996;28;87421;-85
2023/08/26 00:58:11;;;;;;;3.20;2.70;;;24.10;67.40;;;;;;4946103;28;87853;-84
2023/08/26 01:00:39;;;;;;;2.78;2.50;;;24.10;67.50;;;;;;4946061;28;87978;-84
2023/08/26 01:03:08;;;;;;;3.13;2.53;;;24.10;67.40;;;;;;4944250;28;88402;-86
2023/08/26 01:05:34;;;;;;;5.90;3.00;;;24.10;67.60;;;;;;4945766;28;88510;-87
2023/08/26 01:08:02;;;;;;;3.08;2.80;;;24.10;67.70;;;;;;4945790;28;87745;-85
2023/08/26 01:11:06;;;;;;;2.90;2.60;;;24.10;67.60;;;;;;4946148;28;87414;-86
2023/08/26 01:14:01;;;;;;;3.42;2.83;;;24.10;67.80;;;;;;4945126;28;88274;-84
2023/08/26 01:16:29;;;;;;;4.60;2.92;;;24.10;67.70;;;;;;4945128;28;87811;-85
2023/08/26 01:18:56;;;;;;;3.13;2.20;;;24.10;67.70;;;;;;4946924;28;87890;-84
2023/08/26 01:21:29;;;;;;;3.15;2.72;;;24.00;67.60;;;;;;4944421;28;90007;-83
2023/08/26 01:23:54;;;;;;;2.70;2.50;;;24.10;67.70;;;;;;4945679;28;88543;-85
2023/08/26 01:26:20;;;;;;;2.90;2.60;;;24.10;67.80;;;;;;4945528;28;87899;-85
2023/08/26 01:28:46;;;;;;;2.60;2.40;;;24.10;67.70;;;;;;4945583;28;88494;-86
2023/08/26 01:31:13;;;;;;;2.53;2.33;;;24.00;67.70;;;;;;4945821;28;87578;-84
2023/08/26 01:34:00;;;;;;;2.53;2.30;;;24.00;67.60;;;;;;4946260;28;88335;-84
2023/08/26 01:36:27;;;;;;;3.05;2.75;;;24.00;67.70;;;;;;4942597;28;90233;-87
2023/08/26 01:38:57;;;;;;;2.78;2.22;;;24.00;67.60;;;;;;4944978;28;87971;-84
2023/08/26 01:41:24;;;;;;;2.70;2.50;;;24.10;67.60;;;;;;4945524;28;87739;-85
2023/08/26 01:43:51;;;;;;;3.10;2.80;;;24.10;67.80;;;;;;4945843;28;88544;-84
2023/08/26 01:46:17;;;;;;;2.90;2.60;;;24.00;67.60;;;;;;4945388;28;87931;-84
2023/08/26 01:48:43;;;;;;;2.42;2.22;;;24.00;67.50;;;;;;4946386;28;87845;-86
2023/08/26 01:51:09;;;;;;;3.20;2.67;;;24.00;67.60;;;;;;4944286;28;87225;-85
2023/08/26 01:53:34;;;;;;;3.03;2.72;;;24.00;67.50;;;;;;4944329;28;89105;-85
2023/08/26 01:56:00;;;;;;;3.55;2.53;;;24.00;67.50;;;;;;4943989;28;88876;-83
2023/08/26 01:58:26;;;;;;;3.20;2.65;;;24.00;67.40;;;;;;4942567;28;87921;-85
2023/08/26 02:00:52;;;;;;;2.72;2.53;;;24.00;67.60;;;;;;4945289;28;87421;-87
2023/08/26 02:03:17;;;;;;;3.05;2.75;;;24.00;67.40;;;;;;4943723;28;89769;-85
2023/08/26 02:05:43;;;;;;;2.63;2.40;;;24.00;67.40;;;;;;4942389;28;90189;-85
2023/08/26 02:08:09;;;;;;;2.40;2.20;;;24.00;67.50;;;;;;4942284;28;87220;-84
2023/08/26 02:10:34;;;;;;;2.83;2.53;;;24.00;67.30;;;;;;4945131;28;87708;-87
2023/08/26 02:13:00;;;;;;;2.65;2.45;;;24.00;67.40;;;;;;4943852;28;88675;-82
2023/08/26 02:15:26;;;;;;;2.47;2.28;;;24.00;67.60;;;;;;4941888;28;90617;-84
2023/08/26 02:17:52;;;;;;;2.42;2.22;;;24.00;67.40;;;;;;4943464;28;88326;-87
2023/08/26 02:20:17;;;;;;;2.80;2.55;;;24.00;67.40;;;;;;4944503;28;87577;-84
2023/08/26 02:22:43;;;;;;;2.50;2.30;;;24.00;67.50;;;;;;4944517;28;88078;-84
2023/08/26 02:25:08;;;;;;;2.78;2.58;;;24.00;67.40;;;;;;4946372;28;87477;-84
2023/08/26 02:27:34;;;;;;;2.50;2.30;;;24.00;67.30;;;;;;4945365;28;88260;-84
2023/08/26 02:29:59;;;;;;;3.60;2.97;;;24.00;67.30;;;;;;4944037;28;87501;-85
2023/08/26 02:32:25;;;;;;;3.53;2.78;;;24.00;67.40;;;;;;4943813;28;87633;-85
2023/08/26 02:34:51;;;;;;;2.72;2.38;;;24.00;67.40;;;;;;4943976;28;87448;-86
2023/08/26 02:37:16;;;;;;;2.97;2.67;;;24.00;67.40;;;;;;4943099;28;88098;-85
2023/08/26 02:39:42;;;;;;;2.70;2.50;;;24.00;67.10;;;;;;4944259;28;87607;-85
2023/08/26 02:42:08;;;;;;;2.55;2.22;;;24.00;67.10;;;;;;4941744;28;91619;-84
2023/08/26 02:44:33;;;;;;;3.17;2.88;;;24.00;67.10;;;;;;4944037;28;87421;-84
2023/08/26 02:46:59;;;;;;;2.58;2.38;;;24.00;67.10;;;;;;4944663;28;87681;-85
2023/08/26 02:49:26;;;;;;;2.60;2.40;;;24.00;67.10;;;;;;4944160;28;87781;-84
2023/08/26 02:51:52;;;;;;;2.83;2.53;;;24.00;67.00;;;;;;4944039;28;87707;-84
2023/08/26 02:54:17;;;;;;;3.63;2.80;;;24.00;67.10;;;;;;4943781;28;87837;-86
2023/08/26 02:56:43;;;;;;;2.65;2.28;;;24.00;67.00;;;;;;4941817;28;87552;-85
2023/08/26 02:59:09;;;;;;;2.53;2.22;;;24.00;67.00;;;;;;4943555;28;86968;-84
2023/08/26 03:01:36;;;;;;;2.95;2.75;;;24.00;67.10;;;;;;4944570;28;94814;-83
2023/08/26 03:04:03;;;;;;;2.50;2.30;;;24.00;67.30;;;;;;4944319;28;87490;-86
2023/08/26 03:06:30;;;;;;;2.60;2.40;;;24.00;67.20;;;;;;4943729;28;89087;-85
2023/08/26 03:08:55;;;;;;;2.90;2.60;;;24.00;67.00;;;;;;4944428;28;88154;-86
2023/08/26 03:11:22;;;;;;;2.90;2.58;;;24.00;67.00;;;;;;4942860;28;87663;-87
2023/08/26 03:13:49;;;;;;;2.85;2.47;;;24.00;67.10;;;;;;4941072;28;88358;-84
2023/08/26 03:16:16;;;;;;;2.20;2.05;;;24.00;67.00;;;;;;4943236;28;87438;-86
2023/08/26 03:18:42;;;;;;;2.72;2.42;;;24.00;66.90;;;;;;4941791;28;89637;-84
2023/08/26 03:21:09;;;;;;;3.00;2.70;;;24.00;66.80;;;;;;4943896;28;88175;-84
2023/08/26 03:23:35;;;;;;;2.63;2.42;;;24.00;67.00;;;;;;4942762;28;93393;-84
2023/08/26 03:26:01;;;;;;;2.50;2.30;;;24.00;66.80;;;;;;4944641;28;87362;-84
2023/08/26 03:28:27;;;;;;;2.75;2.50;;;24.00;66.80;;;;;;4944034;28;87394;-85
2023/08/26 03:30:52;;;;;;;2.85;2.55;;;24.00;66.80;;;;;;4943084;28;88677;-84
2023/08/26 03:33:18;;;;;;;2.92;2.58;;;24.00;66.70;;;;;;4942653;28;88181;-84
2023/08/26 03:35:43;;;;;;;2.47;2.28;;;24.00;67.40;;;;;;4941393;28;87537;-85
2023/08/26 03:38:09;;;;;;;3.35;2.42;;;24.00;67.60;;;;;;4942151;28;89744;-84
2023/08/26 03:40:40;;;;;;;3.28;2.65;;;24.00;67.50;;;;;;4944348;28;88579;-86
2023/08/26 03:43:05;;;;;;;3.97;2.47;;;23.90;67.30;;;;;;4943067;28;87961;-85
2023/08/26 03:45:31;;;;;;;2.95;2.65;;;24.00;67.50;;;;;;4940960;28;87483;-85
2023/08/26 03:47:57;;;;;;;2.53;2.30;;;24.00;67.30;;;;;;4940639;28;86856;-83
2023/08/26 03:50:23;;;;;;;2.38;2.17;;;23.90;67.40;;;;;;4941551;28;88919;-83
2023/08/26 03:52:48;;;;;;;2.92;2.55;;;23.90;67.50;;;;;;4941308;28;87812;-87
2023/08/26 03:55:14;;;;;;;2.15;1.95;;;23.90;67.60;;;;;;4940126;28;89436;-84
2023/08/26 03:57:40;;;;;;;2.38;2.17;;;23.90;67.30;;;;;;4940602;28;87489;-85
2023/08/26 04:00:06;;;;;;;2.88;2.35;;;23.90;67.40;;;;;;4940005;28;88395;-84
2023/08/26 04:02:32;;;;;;;2.63;2.03;;;23.90;67.30;;;;;;4941196;28;87111;-85
2023/08/26 04:04:57;;;;;;;2.45;2.25;;;23.90;67.40;;;;;;4940612;28;87494;-86
2023/08/26 04:07:23;;;;;;;2.70;2.50;;;23.90;67.40;;;;;;4937915;28;87601;-85
2023/08/26 04:09:48;;;;;;;2.47;2.28;;;23.90;67.30;;;;;;4940434;28;89099;-85
2023/08/26 04:12:14;;;;;;;2.53;2.33;;;23.90;67.60;;;;;;4939113;28;87908;-85
2023/08/26 04:14:40;;;;;;;3.08;2.10;;;23.90;67.40;;;;;;4940997;28;87840;-85
2023/08/26 04:17:05;;;;;;;3.20;2.60;;;23.90;67.50;;;;;;4942153;28;87738;-85
2023/08/26 04:19:32;;;;;;;4.07;2.47;;;23.90;67.50;;;;;;4939350;28;88893;-85
2023/08/26 04:22:00;;;;;;;2.38;2.17;;;23.90;67.60;;;;;;4940698;28;88401;-84
2023/08/26 04:24:26;;;;;;;2.40;2.20;;;23.90;67.60;;;;;;4938828;28;88096;-84
2023/08/26 04:26:52;;;;;;;2.30;2.10;;;23.90;67.50;;;;;;4939277;28;87260;-84
2023/08/26 04:29:17;;;;;;;2.28;2.08;;;23.90;67.40;;;;;;4940791;28;88554;-85
2023/08/26 04:31:43;;;;;;;2.70;2.50;;;23.90;67.40;;;;;;4940804;28;87967;-85
2023/08/26 04:34:08;;;;;;;2.53;2.28;;;23.90;67.60;;;;;;4942582;28;87980;-84
2023/08/26 04:36:34;;;;;;;2.38;2.05;;;23.90;67.60;;;;;;4943047;28;93511;-83
2023/08/26 04:39:00;;;;;;;2.33;2.13;;;23.80;67.40;;;;;;4942714;28;88476;-85
2023/08/26 04:41:26;;;;;;;2.22;2.03;;;23.90;67.30;;;;;;4944016;28;88374;-86
2023/08/26 04:43:55;;;;;;;2.63;2.42;;;23.80;67.30;;;;;;4942445;28;88998;-85
2023/08/26 04:46:21;;;;;;;2.72;2.40;;;23.80;67.40;;;;;;4942629;28;87374;-85
2023/08/26 04:48:46;;;;;;;2.53;2.13;;;23.80;67.40;;;;;;4941533;28;90409;-85
2023/08/26 04:51:12;;;;;;;2.78;2.55;;;23.80;67.40;;;;;;4940469;28;90030;-86
2023/08/26 04:53:38;;;;;;;2.65;2.15;;;23.80;67.30;;;;;;4941845;28;87350;-84
2023/08/26 04:56:03;;;;;;;2.17;1.98;;;23.80;67.40;;;;;;4939315;28;88562;-85
2023/08/26 04:58:30;;;;;;;2.83;2.28;;;23.80;67.40;;;;;;4941070;28;88770;-86
2023/08/26 05:00:57;;;;;;;2.28;2.08;;;23.70;67.20;;;;;;4944002;28;87233;-87
2023/08/26 05:03:22;;;;;;;3.22;1.83;;;23.80;67.40;;;;;;4942822;28;88145;-85
2023/08/26 05:05:48;;;;;;;2.40;2.05;;;23.80;67.30;;;;;;4942513;28;87456;-86
2023/08/26 05:08:14;;;;;;;2.22;2.03;;;23.80;67.40;;;;;;4942011;28;89878;-86
2023/08/26 05:10:40;;;;;;;2.33;2.13;;;23.80;67.30;;;;;;4942326;28;88790;-86
2023/08/26 05:13:06;;;;;;;2.20;1.95;;;23.80;67.30;;;;;;4944869;28;88081;-86
2023/08/26 05:15:32;;;;;;;1.88;1.77;;;23.80;67.30;;;;;;4942751;28;87665;-85
2023/08/26 05:17:58;;;;;;;2.85;2.33;;;23.80;67.30;;;;;;4942946;28;88855;-85
2023/08/26 05:20:24;;;;;;;2.20;1.90;;;23.80;67.40;;;;;;4942554;28;87748;-86
2023/08/26 05:22:49;;;;;;;1.92;1.75;;;23.80;67.30;;;;;;4942156;28;87601;-84
2023/08/26 05:25:15;;;;;;;2.20;1.90;;;23.80;67.20;;;;;;4942601;28;87374;-87
2023/08/26 05:27:41;;;;;;;1.98;1.88;;;23.80;67.40;;;;;;4941917;28;90779;-86
2023/08/26 05:30:07;;;;;;;2.22;2.05;;;23.80;67.30;;;;;;4942077;28;87941;-85
2023/08/26 05:32:33;;;;;;;2.00;1.85;;;23.70;68.10;;;;;;4942004;28;89268;-85
2023/08/26 05:34:58;;;;;;;2.22;2.03;;;23.70;67.10;;;;;;4941371;28;88361;-84
2023/08/26 05:37:24;;;;;;;2.45;2.08;;;23.80;67.10;;;;;;4940763;28;88696;-86
2023/08/26 05:39:50;;;;;;;2.17;1.80;;;23.80;67.20;;;;;;4942953;28;89251;-85
2023/08/26 05:42:15;;;;;;;2.20;2.00;;;23.80;67.00;;;;;;4942642;28;87381;-86
2023/08/26 05:44:41;;;;;;;2.28;1.90;;;23.80;66.90;;;;;;4939863;28;88166;-86
2023/08/26 05:47:06;;;;;;;1.92;1.80;;;23.90;67.00;;;;;;4942313;28;88029;-84
2023/08/26 05:49:32;;;;;;;2.28;2.08;;;23.90;67.10;;;;;;4943049;28;87147;-86
2023/08/26 05:51:58;;;;;;;1.70;1.60;;;23.90;66.90;;;;;;4942577;28;87488;-85
2023/08/26 05:54:24;;;;;;;2.20;1.90;;;23.90;67.00;;;;;;4942859;28;87425;-85
2023/08/26 05:56:49;;;;;;;2.30;2.10;;;23.90;67.10;;;;;;4940641;28;89131;-85
2023/08/26 05:59:15;;;;;;;2.10;1.90;;;23.90;67.20;;;;;;4941169;28;92686;-86
2023/08/26 06:01:40;;;;;;;1.83;1.73;;;23.90;67.10;;;;;;4942676;28;87048;-86
2023/08/26 06:04:07;;;;;;;1.98;1.77;;;23.90;67.30;;;;;;4942241;28;89091;-84
2023/08/26 06:06:33;;;;;;;2.50;1.95;;;23.90;67.00;;;;;;4940222;28;89774;-85
2023/08/26 06:08:58;;;;;;;2.40;2.10;;;24.00;67.30;;;;;;4939542;28;90001;-86
2023/08/26 06:11:24;;;;;;;2.67;2.00;;;24.00;67.30;;;;;;4940333;28;87891;-84
2023/08/26 06:13:50;;;;;;;1.70;1.60;;;24.00;67.30;;;;;;4940468;28;86883;-87
2023/08/26 06:16:19;;;;;;;1.98;1.83;;;24.00;67.40;;;;;;4940629;28;88046;-87
2023/08/26 06:18:48;;;;;;;7.25;1.80;;;24.00;67.40;;;;;;4942074;28;87573;-84
2023/08/26 06:21:14;;;;;;;8.65;1.90;;;24.10;66.30;;;;;;4939557;28;89812;-85
2023/08/26 06:23:40;;;;;;;8.50;1.90;;;24.10;60.20;;;;;;4938586;28;87512;-82
2023/08/26 06:26:05;;;;;;;5.18;1.77;;;24.10;59.30;;;;;;4941094;28;88329;-82
2023/08/26 06:28:31;;;;;;;12.18;1.90;;;24.10;57.40;;;;;;4939419;28;87754;-83
2023/08/26 06:31:01;;;;;;;6.55;1.23;;;24.10;55.40;;;;;;4940485;28;87996;-82
2023/08/26 06:33:27;;;;;;;7.13;1.67;;;24.00;54.20;;;;;;4942014;28;88153;-85
2023/08/26 06:35:53;;;;;;;7.18;1.10;;;24.00;53.60;;;;;;4939122;28;87930;-82
2023/08/26 06:38:19;;;;;;;3.50;1.38;;;24.00;53.00;;;;;;4937929;28;90179;-82
2023/08/26 06:40:53;;;;;;;4.25;1.00;;;24.00;52.40;;;;;;4937665;28;87749;-84
2023/08/26 06:43:19;;;;;;;5.00;1.50;;;24.00;52.50;;;;;;4938181;28;90839;-81
2023/08/26 06:45:45;;;;;;;4.93;1.45;;;23.90;52.30;;;;;;4937484;28;89049;-83
2023/08/26 06:48:10;;;;;;;8.45;1.23;;;24.00;53.00;;;;;;4937675;28;91131;-82
2023/08/26 06:50:36;;;;;;;8.02;1.00;;;24.00;52.70;;;;;;4937781;28;87505;-81
2023/08/26 06:53:02;;;;;;;6.15;1.05;;;24.00;52.00;;;;;;4937278;28;87757;-84
2023/08/26 06:55:27;;;;;;;4.00;0.98;;;24.00;51.70;;;;;;4936849;28;87639;-81
2023/08/26 06:57:53;;;;;;;4.25;1.00;;;24.00;51.50;;;;;;4939306;28;87781;-82
2023/08/26 07:00:18;;;;;;;3.70;0.88;;;23.90;51.60;;;;;;4939121;28;87556;-82
2023/08/26 07:02:44;;;;;;;3.72;1.17;;;23.90;51.60;;;;;;4939350;28;87217;-81
2023/08/26 07:05:10;;;;;;;4.68;1.00;;;23.90;52.70;;;;;;4939776;28;88372;-82
2023/08/26 07:07:36;;;;;;;2.20;0.80;;;23.90;51.90;;;;;;4939655;28;87616;-81
2023/08/26 07:10:03;;;;;;;3.53;0.88;;;23.90;52.00;;;;;;4940035;28;89354;-81
2023/08/26 07:12:29;;;;;;;1.83;0.60;;;23.90;51.70;;;;;;4937482;28;87757;-80
2023/08/26 07:14:55;;;;;;;4.53;0.93;;;23.90;51.50;;;;;;4940182;28;88450;-83
2023/08/26 07:17:21;;;;;;;2.20;0.88;;;23.90;51.90;;;;;;4938848;28;90502;-83
2023/08/26 07:19:47;;;;;;;3.05;0.90;;;23.90;51.60;;;;;;4939320;28;87963;-83
2023/08/26 07:22:12;;;;;;;2.45;0.70;;;24.00;51.50;;;;;;4937846;28;88371;-83
2023/08/26 07:24:38;;;;;;;2.08;1.10;;;24.00;52.10;;;;;;4939300;28;89121;-83
2023/08/26 07:27:04;;;;;;;3.70;0.90;;;24.00;51.30;;;;;;4940769;28;87208;-81
2023/08/26 07:29:37;;;;;;;5.72;0.98;;;24.10;50.90;;;;;;4938343;28;87101;-81
2023/08/26 07:32:04;;;;;;;6.18;1.30;;;24.00;51.70;;;;;;4940192;28;87184;-81
2023/08/26 07:34:29;;;;;;;8.07;1.30;;;24.00;51.70;;;;;;4937350;28;89496;-84
2023/08/26 07:36:55;;;;;;;7.30;1.48;;;24.00;51.20;;;;;;4938792;28;87947;-81
2023/08/26 07:39:21;;;;;;;7.20;1.25;;;24.00;51.90;;;;;;4937768;28;87667;-82
2023/08/26 07:41:46;;;;;;;6.70;1.25;;;24.00;52.00;;;;;;4939187;28;87184;-84
2023/08/26 07:44:12;;;;;;;7.93;1.45;;;24.00;52.20;;;;;;4939768;28;88108;-84
2023/08/26 07:46:38;;;;;;;5.18;1.15;;;24.00;52.70;;;;;;4933664;28;89269;-83
2023/08/26 07:49:06;;;;;;;6.13;1.38;;;24.20;52.80;;;;;;4940022;28;87591;-82
2023/08/26 07:51:32;;;;;;;3.53;0.82;;;24.10;52.70;;;;;;4936256;28;89953;-81
2023/08/26 07:53:57;;;;;;;4.60;1.00;;;24.10;52.30;;;;;;4938493;28;87978;-81
2023/08/26 07:56:23;;;;;;;4.60;0.90;;;24.20;52.60;;;;;;4938397;28;87796;-84
2023/08/26 07:58:49;;;;;;;3.90;0.70;;;24.20;52.10;;;;;;4938397;28;88986;-85
2023/08/26 08:01:16;;;;;;;4.32;1.17;;;24.10;52.30;;;;;;4939415;28;87634;-87
2023/08/26 08:03:41;;;;;;;7.72;1.08;;;24.10;52.80;;;;;;4940419;28;88297;-87
2023/08/26 08:06:07;;;;;;;2.63;0.95;;;24.10;52.60;;;;;;4938790;28;87566;-85
2023/08/26 08:08:32;;;;;;;2.97;0.88;;;24.10;52.80;;;;;;4942526;28;88115;-81
2023/08/26 08:10:58;;;;;;;2.10;0.80;;;24.20;52.70;;;;;;4940122;28;87812;-82
2023/08/26 08:13:24;;;;;;;3.63;0.90;;;24.20;52.60;;;;;;4941372;28;88039;-85
2023/08/26 08:15:49;;;;;;;7.78;1.00;;;24.10;52.60;;;;;;4943357;28;87168;-81
2023/08/26 08:18:15;;;;;;;1.77;0.80;;;24.10;52.80;;;;;;4942815;28;87301;-84
2023/08/26 08:20:41;;;;;;;4.63;0.98;;;24.20;52.70;;;;;;4942305;28;87761;-83
2023/08/26 08:23:06;;;;;;;4.07;1.30;;;24.10;52.50;;;;;;4940638;28;92209;-83
2023/08/26 08:25:32;;;;;;;3.63;1.27;;;24.20;52.80;;;;;;4942766;28;89356;-82
2023/08/26 08:27:57;;;;;;;7.05;1.63;;;24.20;52.60;;;;;;4943705;28;89107;-83
2023/08/26 08:30:23;;;;;;;5.47;1.85;;;24.10;52.60;;;;;;4942892;28;87484;-82
2023/08/26 08:32:49;;;;;;;3.55;1.38;;;24.10;52.90;;;;;;4941381;28;88299;-82
2023/08/26 08:35:14;;;;;;;4.88;1.55;;;24.10;53.10;;;;;;4942242;28;89005;-83
2023/08/26 08:37:40;;;;;;;7.68;1.67;;;24.10;52.90;;;;;;4942079;28;88690;-83
2023/08/26 08:40:06;;;;;;;3.60;1.30;;;24.10;52.80;;;;;;4943032;28;87681;-86
2023/08/26 08:42:36;;;;;;;10.05;1.65;;;24.20;53.50;;;;;;4943292;28;88049;-81
2023/08/26 08:45:03;;;;;;;;;;;24.10;53.50;;;;;;4941975;28;90193;-83
2023/08/26 08:47:29;;;;;;;8.10;1.50;;;24.10;54.00;;;;;;4942111;28;88942;-86
2023/08/26 08:49:57;;;;;;;6.20;1.33;;;24.10;53.80;;;;;;4941603;28;87295;-82
2023/08/26 08:52:23;;;;;;;8.98;1.73;;;24.20;54.10;;;;;;4942198;28;87996;-88
2023/08/26 08:54:49;;;;;;;6.13;1.45;;;24.20;54.00;;;;;;4944098;28;88281;-81
2023/08/26 08:57:16;;;;;;;4.18;1.60;;;24.20;53.60;;;;;;4942896;28;87549;-84
2023/08/26 08:59:43;;;;;;;4.88;1.23;;;24.20;54.10;;;;;;4942469;28;87997;-85
2023/08/26 09:02:11;;;;;;;3.13;1.27;;;24.10;54.20;;;;;;4942258;28;89097;-85
2023/08/26 09:04:37;;;;;;;8.52;1.38;;;24.10;54.00;;;;;;4940925;28;90250;-86
2023/08/26 09:07:05;;;;;;;4.13;1.15;;;24.20;53.70;;;;;;4943256;28;87274;-82
2023/08/26 09:09:30;;;;;;;2.63;1.13;;;24.10;53.70;;;;;;4942871;28;87451;-81
2023/08/26 09:11:56;;;;;;;4.28;1.25;;;24.10;54.20;;;;;;4941565;28;88567;-84
2023/08/26 09:14:22;;;;;;;3.95;1.40;;;24.10;54.00;;;;;;4941319;28;88551;-82
2023/08/26 09:16:48;;;;;;;6.07;1.30;;;24.10;53.70;;;;;;4940154;28;87952;-83
2023/08/26 09:19:14;;;;;;;4.53;1.35;;;24.20;53.80;;;;;;4938988;28;88528;-82
2023/08/26 09:21:47;;;;;;;3.25;1.08;;;24.20;53.30;;;;;;4941092;28;91490;-83
2023/08/26 09:24:17;;;;;;;4.88;1.27;;;24.20;53.00;;;;;;4939387;28;88651;-81
2023/08/26 09:26:47;;;;;;;1.42;0.70;;;24.20;53.50;;;;;;4940336;28;87707;-83
2023/08/26 09:29:21;;;;;;;6.75;1.25;;;24.20;53.50;;;;;;4941473;28;86889;-84
2023/08/26 09:31:50;;;;;;;5.35;1.38;;;24.20;53.80;;;;;;4940446;28;88969;-83
2023/08/26 09:34:22;;;;;;;;;;;24.20;53.70;;;;;;4940975;28;87928;-82
2023/08/26 09:36:48;;;;;;;6.25;1.70;;;24.10;53.30;;;;;;4941714;28;88975;-85
2023/08/26 09:39:15;;;;;;;8.93;1.52;;;24.20;53.30;;;;;;4940165;28;87451;-83
2023/08/26 09:41:45;;;;;;;14.98;4.03;;;24.20;53.00;;;;;;4939428;28;91313;-81
2023/08/26 09:44:12;;;;;;;27.48;6.13;;;24.20;53.50;;;;;;4939790;28;87794;-84
2023/08/26 09:46:39;;;;;;;28.13;6.78;;;24.30;53.30;;;;;;4941196;28;87874;-82
2023/08/26 09:49:06;;;;;;;32.40;7.93;;;24.20;53.30;;;;;;4942755;28;86988;-85
2023/08/26 09:51:32;;;;;;;22.65;7.15;;;24.30;53.60;;;;;;4940692;28;87403;-83
2023/08/26 09:54:00;;;;;;;30.65;5.53;;;24.30;53.50;;;;;;4940761;28;86956;-83
2023/08/26 09:56:27;;;;;;;17.67;4.60;;;24.20;53.40;;;;;;4941859;28;87670;-83
2023/08/26 09:58:54;;;;;;;9.90;3.05;;;24.20;53.80;;;;;;4941372;28;88166;-83
2023/08/26 10:01:20;;;;;;;10.90;2.90;;;24.10;53.60;;;;;;4940670;28;89176;-83
2023/08/26 10:03:52;;;;;;;10.10;3.10;;;24.20;53.60;;;;;;4942011;28;88638;-83
2023/08/26 10:06:25;;;;;;;7.93;2.38;;;24.20;54.20;;;;;;4939775;28;87832;-84
2023/08/26 10:09:01;;;;;;;7.00;2.20;;;24.20;54.20;;;;;;4938736;28;89452;-83
2023/08/26 10:11:29;;;;;;;5.57;1.85;;;24.20;54.00;;;;;;4937947;28;88741;-83
2023/08/26 10:13:56;;;;;;;5.68;1.92;;;24.20;53.40;;;;;;4939338;28;88219;-82
2023/08/26 10:16:23;;;;;;;3.85;1.67;;;24.10;53.80;;;;;;4940661;28;87859;-81
2023/08/26 10:18:54;;;;;;;2.75;1.17;;;24.10;53.80;;;;;;4940658;28;89939;-83
2023/08/26 10:21:20;;;;;;;2.88;0.90;;;24.20;53.70;;;;;;4939877;28;88678;-82
2023/08/26 10:23:48;;;;;;;3.67;1.13;;;24.10;54.30;;;;;;4940115;28;87652;-82
2023/08/26 10:26:16;;;;;;;3.42;1.23;;;24.10;53.80;;;;;;4938372;28;88598;-84
2023/08/26 10:28:43;;;;;;;2.30;1.40;;;24.00;53.60;;;;;;4940526;28;87984;-83
2023/08/26 10:31:09;;;;;;;3.42;1.23;;;24.20;53.70;;;;;;4940981;28;87374;-81
2023/08/26 10:33:58;;;;;;;5.15;1.30;;;24.10;54.20;;;;;;4939847;28;90569;-84
2023/08/26 10:36:24;;;;;;;1.85;1.00;;;24.20;53.60;;;;;;4940608;28;87603;-81
2023/08/26 10:38:59;;;;;;;4.65;1.45;;;24.20;53.60;;;;;;4940446;28;87467;-82
2023/08/26 10:41:26;;;;;;;7.65;1.65;;;24.20;53.90;;;;;;4940382;28;88737;-82
2023/08/26 10:43:58;;;;;;;7.50;1.38;;;24.30;53.20;;;;;;4940852;28;88579;-83
2023/08/26 10:46:55;;;;;;;6.25;1.40;;;24.30;53.60;;;;;;4940068;28;87933;-83
2023/08/26 10:49:28;;;;;;;4.63;1.10;;;24.20;53.70;;;;;;4940544;28;87841;-83
2023/08/26 10:52:18;;;;;;;10.80;1.40;;;24.20;54.40;;;;;;4939326;28;89831;-82
2023/08/26 10:54:47;;;;;;;3.17;1.15;;;24.20;53.50;;;;;;4939025;28;93811;-82
2023/08/26 10:57:13;;;;;;;4.53;1.23;;;24.30;53.20;;;;;;4938114;28;87424;-83
2023/08/26 10:59:42;;;;;;;3.13;1.17;;;24.30;52.90;;;;;;4938926;28;87614;-82
2023/08/26 11:02:11;;;;;;;3.00;1.00;;;24.30;53.20;;;;;;4940438;28;87921;-84
2023/08/26 11:04:43;;;;;;;9.57;1.43;;;24.30;53.50;;;;;;4940497;28;87638;-83
2023/08/26 11:07:16;;;;;;;7.20;1.80;;;24.30;53.70;;;;;;4940935;28;87910;-82
2023/08/26 11:09:42;;;;;;;5.22;1.85;;;24.40;53.50;;;;;;4939557;28;90921;-85
2023/08/26 11:12:28;;;;;;;8.27;1.73;;;24.40;53.70;;;;;;4939835;28;88424;-83
2023/08/26 11:15:05;;;;;;;9.05;1.45;;;24.40;53.70;;;;;;4941351;28;87900;-86
2023/08/26 11:17:32;;;;;;;5.47;1.42;;;24.40;53.00;;;;;;4940161;28;88379;-85
2023/08/26 11:19:57;;;;;;;7.93;1.60;;;24.40;53.40;;;;;;4939065;28;87632;-83
2023/08/26 11:22:25;;;;;;;7.28;1.55;;;24.40;53.30;;;;;;4939063;28;88792;-83
2023/08/26 11:24:51;;;;;;;7.43;1.40;;;24.40;53.10;;;;;;4942035;28;87922;-84
2023/08/26 11:27:17;;;;;;;7.32;1.50;;;24.40;53.00;;;;;;4937684;28;87548;-85
2023/08/26 11:29:43;;;;;;;12.18;1.77;;;24.40;53.40;;;;;;4940486;28;87187;-85
2023/08/26 11:32:09;;;;;;;11.05;2.22;;;24.30;53.20;;;;;;4940688;28;88172;-85
2023/08/26 11:34:35;;;;;;;9.93;2.50;;;24.30;53.40;;;;;;4939666;28;87965;-84
2023/08/26 11:37:00;;;;;;;9.00;1.90;;;24.30;53.10;;;;;;4941077;28;87645;-82
2023/08/26 11:39:35;;;;;;;6.35;1.80;;;24.20;52.80;;;;;;4940464;28;87791;-84
2023/08/26 11:42:14;;;;;;;10.77;1.70;;;24.20;53.40;;;;;;4939932;28;88636;-86
2023/08/26 11:44:43;;;;;;;6.28;1.98;;;24.20;52.90;;;;;;4938929;28;88375;-84
2023/08/26 11:47:12;;;;;;;6.18;1.85;;;24.30;53.20;;;;;;4937754;28;87959;-84
2023/08/26 11:49:39;;;;;;;5.70;1.70;;;24.30;52.90;;;;;;4937168;28;87234;-82
2023/08/26 11:52:05;;;;;;;5.82;2.13;;;24.30;52.70;;;;;;4935308;28;90515;-81
2023/08/26 11:54:31;;;;;;;7.47;1.85;;;24.30;52.60;;;;;;4938374;28;88069;-82
2023/08/26 11:56:57;;;;;;;8.63;1.92;;;24.30;52.90;;;;;;4938796;28;87821;-86
2023/08/26 11:59:23;;;;;;;6.00;1.88;;;24.30;52.70;;;;;;4938232;28;86837;-85
2023/08/26 12:01:49;;;;;;;3.65;1.75;;;24.30;52.70;;;;;;4943783;28;87747;-84
2023/08/26 12:04:19;;;;;;;3.90;1.50;;;24.30;52.10;;;;;;4939538;28;88019;-82
2023/08/26 12:06:45;;;;;;;2.53;1.40;;;24.40;52.30;;;;;;4939890;28;89271;-82
2023/08/26 12:09:12;;;;;;;4.93;1.48;;;24.40;52.30;;;;;;4940122;28;88323;-81
2023/08/26 12:11:40;;;;;;;2.42;1.20;;;24.30;52.50;;;;;;4939226;28;87503;-82
2023/08/26 12:14:20;;;;;;;2.40;1.20;;;24.30;52.30;;;;;;4940386;28;87684;-81
2023/08/26 12:16:45;;;;;;;;;;;24.40;52.00;;;;;;4939630;28;87458;-82
2023/08/26 12:19:18;;;;;;;5.43;1.48;;;24.30;52.20;;;;;;4938948;28;87440;-84
2023/08/26 12:21:50;;;;;;;2.55;1.42;;;24.40;52.20;;;;;;4938753;28;87001;-86
2023/08/26 12:24:21;;;;;;;3.08;0.98;;;24.40;52.30;;;;;;4941087;28;87585;-81
2023/08/26 12:26:47;;;;;;;2.70;0.98;;;24.40;51.90;;;;;;4936724;28;87337;-86
2023/08/26 12:29:13;;;;;;;4.30;1.10;;;24.40;51.80;;;;;;4938215;28;87540;-83
2023/08/26 12:31:39;;;;;;;2.30;0.82;;;24.40;52.10;;;;;;4938515;28;89560;-87
2023/08/26 12:34:04;;;;;;;2.47;1.02;;;24.30;52.10;;;;;;4939261;28;88023;-84
2023/08/26 12:36:30;;;;;;;3.53;1.25;;;24.30;52.40;;;;;;4939638;28;87437;-83
2023/08/26 12:38:56;;;;;;;2.20;0.90;;;24.20;52.30;;;;;;4938974;28;87648;-87
2023/08/26 12:41:21;;;;;;;3.92;1.05;;;24.20;52.40;;;;;;4937486;28;91041;-86
2023/08/26 12:43:48;;;;;;;5.30;1.00;;;24.20;52.50;;;;;;4938817;28;87547;-83
2023/08/26 12:46:14;;;;;;;2.30;1.10;;;24.30;52.50;;;;;;4939841;28;87412;-86
2023/08/26 12:48:39;;;;;;;8.70;1.60;;;24.20;52.60;;;;;;4940106;28;87183;-86